Airport Name : Presidente Joao Suassuna

Other Name : Campina Grande

ICAO : SBKG

IATA : CPV

FAA :

Latitude : -7.269917

Longitude : -35.896364

Country : Brazil

Local Date and Time : 7/23/2018 10:31:00 AM

 

TAF (Terminal Aerodrome Forecast)

TAF SBKG 231000Z 2312/2324 13012KT 9999 BKN020 TX27/2317Z TN20/2323Z BECMG 2314/2316 SCT025 BECMG 2319/2321 12007KT RMK PEI

 

METAR (METeorological Aerodrome Report)

SBKG 231200Z 15013KT 9999 SCT026 24/16 Q1020

SBKG 231100Z 15012KT 9999 BKN019 21/17 Q1020

SBKG 231000Z 15008KT 9999 FEW013 SCT018 20/18 Q1019